Time,TemperatureF,DewpointF,PressureIn,WindDirection,WindDirectionDegrees,WindSpeedMPH,WindSpeedGustMPH,Humidity,HourlyPrecipIn,Conditions,Clouds,dailyrainin,SolarRadiationWatts/m^2,SoftwareType,DateUTC
2013-01-29 00:01:00,67.0,61.0,-100.00,South,173,12.0,22.0,82,0.00,,,0.02,0.000000,,2013-01-29 06:01:00,
2013-01-29 00:32:00,67.0,62.0,-100.00,South,172,14.0,31.0,83,0.00,,,0.02,0.000000,,2013-01-29 06:32:00,
2013-01-29 00:42:00,67.0,62.0,-100.00,South,172,14.0,31.0,83,0.00,,,0.02,0.000000,,2013-01-29 06:42:00,
2013-01-29 00:52:00,67.0,62.0,-100.00,South,172,14.0,31.0,83,0.00,,,0.02,0.000000,,2013-01-29 06:52:00,
2013-01-29 01:01:00,67.0,62.0,-100.00,South,172,14.0,31.0,83,0.00,,,0.02,0.000000,,2013-01-29 07:01:00,
2013-01-29 01:02:00,67.0,62.0,-100.00,South,181,13.0,25.0,83,0.00,,,0.02,0.000000,,2013-01-29 07:02:00,
2013-01-29 01:32:00,67.0,62.0,-100.00,South,181,13.0,25.0,83,0.00,,,0.02,0.000000,,2013-01-29 07:32:00,
2013-01-29 01:42:00,67.0,62.0,-100.00,South,181,13.0,25.0,83,0.00,,,0.02,0.000000,,2013-01-29 07:42:00,
2013-01-29 01:52:00,67.0,62.0,-100.00,South,181,13.0,25.0,83,0.00,,,0.02,0.000000,,2013-01-29 07:52:00,
2013-01-29 02:32:00,66.0,61.0,-100.00,South,176,9.0,20.0,85,0.00,,,0.01,0.000000,,2013-01-29 08:32:00,
2013-01-29 02:42:00,66.0,61.0,-100.00,South,176,9.0,20.0,85,0.00,,,0.01,0.000000,,2013-01-29 08:42:00,
2013-01-29 02:52:00,66.0,61.0,-100.00,South,176,9.0,20.0,85,0.00,,,0.01,0.000000,,2013-01-29 08:52:00,
2013-01-29 03:01:00,66.0,61.0,-100.00,South,176,9.0,20.0,85,0.00,,,0.01,0.000000,,2013-01-29 09:01:00,
2013-01-29 03:32:00,65.0,61.0,-100.00,South,174,7.0,17.0,88,0.00,,,0.00,0.000000,,2013-01-29 09:32:00,
2013-01-29 03:42:00,65.0,61.0,-100.00,South,174,7.0,17.0,88,0.00,,,0.00,0.000000,,2013-01-29 09:42:00,
2013-01-29 03:52:00,65.0,61.0,-100.00,South,174,7.0,17.0,88,0.00,,,0.00,0.000000,,2013-01-29 09:52:00,
2013-01-29 04:01:00,65.0,61.0,-100.00,South,174,7.0,17.0,88,0.00,,,0.00,0.000000,,2013-01-29 10:01:00,
2013-01-29 04:21:00,64.0,63.0,-100.00,SSE,157,8.0,17.0,95,0.00,,,0.00,0.000000,,2013-01-29 10:21:00,
2013-01-29 04:32:00,64.0,63.0,-100.00,SSE,157,8.0,17.0,95,0.00,,,0.00,0.000000,,2013-01-29 10:32:00,
2013-01-29 04:42:00,64.0,63.0,-100.00,SSE,157,8.0,17.0,95,0.00,,,0.00,0.000000,,2013-01-29 10:42:00,
2013-01-29 04:52:00,64.0,63.0,-100.00,SSE,157,8.0,17.0,95,0.00,,,0.00,0.000000,,2013-01-29 10:52:00,
2013-01-29 05:01:00,64.0,63.0,-100.00,SSE,157,8.0,17.0,95,0.00,,,0.00,0.000000,,2013-01-29 11:01:00,
2013-01-29 05:02:00,64.0,63.0,-100.00,SSE,160,7.0,14.0,95,0.01,,,0.01,0.000000,,2013-01-29 11:02:00,
2013-01-29 05:32:00,64.0,63.0,-100.00,SSE,160,7.0,14.0,95,0.01,,,0.01,0.000000,,2013-01-29 11:32:00,
2013-01-29 05:42:00,64.0,63.0,-100.00,SSE,160,7.0,14.0,95,0.01,,,0.01,0.000000,,2013-01-29 11:42:00,
2013-01-29 05:53:00,64.0,63.0,-100.00,SSE,160,7.0,14.0,95,0.01,,,0.01,0.000000,,2013-01-29 11:53:00,
2013-01-29 06:02:00,64.0,62.0,-100.00,SSE,167,8.0,15.0,94,0.00,,,0.01,0.000000,,2013-01-29 12:02:00,
2013-01-29 06:33:00,64.0,62.0,-100.00,SSE,167,8.0,15.0,94,0.00,,,0.01,0.000000,,2013-01-29 12:33:00,
2013-01-29 06:43:00,64.0,62.0,-100.00,SSE,167,8.0,15.0,94,0.00,,,0.01,0.000000,,2013-01-29 12:43:00,
2013-01-29 06:53:00,64.0,62.0,-100.00,SSE,167,8.0,15.0,94,0.00,,,0.01,0.000000,,2013-01-29 12:53:00,
2013-01-29 07:02:00,63.0,62.0,-100.00,SSE,164,9.0,19.0,95,0.02,,,0.03,0.000000,,2013-01-29 13:02:00,
2013-01-29 07:32:00,63.0,62.0,-100.00,SSE,164,9.0,19.0,95,0.02,,,0.03,0.000000,,2013-01-29 13:32:00,
2013-01-29 07:43:00,63.0,62.0,-100.00,SSE,164,9.0,19.0,95,0.02,,,0.03,0.000000,,2013-01-29 13:43:00,
2013-01-29 07:52:00,63.0,62.0,-100.00,SSE,164,9.0,19.0,95,0.02,,,0.03,0.000000,,2013-01-29 13:52:00,
2013-01-29 08:02:00,63.0,62.0,-100.00,SSE,155,9.0,22.0,96,0.01,,,0.04,0.000000,,2013-01-29 14:02:00,
2013-01-29 08:22:00,63.0,62.0,-100.00,SSE,155,9.0,22.0,96,0.01,,,0.04,0.000000,,2013-01-29 14:22:00,
2013-01-29 08:33:00,63.0,62.0,-100.00,SSE,155,9.0,22.0,96,0.01,,,0.04,0.000000,,2013-01-29 14:33:00,
2013-01-29 08:43:00,63.0,62.0,-100.00,SSE,155,9.0,22.0,96,0.01,,,0.04,0.000000,,2013-01-29 14:43:00,
2013-01-29 08:53:00,63.0,62.0,-100.00,SSE,155,9.0,22.0,96,0.01,,,0.04,0.000000,,2013-01-29 14:53:00,
2013-01-29 09:02:00,63.0,62.0,-100.00,SSE,163,8.0,17.0,97,0.02,,,0.06,0.000000,,2013-01-29 15:02:00,
2013-01-29 09:33:00,63.0,62.0,-100.00,SSE,163,8.0,17.0,97,0.02,,,0.06,0.000000,,2013-01-29 15:33:00,
2013-01-29 09:43:00,63.0,62.0,-100.00,SSE,163,8.0,17.0,97,0.02,,,0.06,0.000000,,2013-01-29 15:43:00,
2013-01-29 09:53:00,63.0,62.0,-100.00,SSE,163,8.0,17.0,97,0.02,,,0.06,0.000000,,2013-01-29 15:53:00,
2013-01-29 10:02:00,64.0,63.0,-100.00,SSE,158,8.0,20.0,95,0.00,,,0.06,0.000000,,2013-01-29 16:02:00,
2013-01-29 10:33:00,64.0,63.0,-100.00,SSE,158,8.0,20.0,95,0.00,,,0.06,0.000000,,2013-01-29 16:33:00,
2013-01-29 10:43:00,64.0,63.0,-100.00,SSE,158,8.0,20.0,95,0.00,,,0.06,0.000000,,2013-01-29 16:43:00,
2013-01-29 10:53:00,64.0,63.0,-100.00,SSE,158,8.0,20.0,95,0.00,,,0.06,0.000000,,2013-01-29 16:53:00,
2013-01-29 11:02:00,65.0,63.0,-100.00,SSE,156,8.0,16.0,94,0.01,,,0.07,1.000000,,2013-01-29 17:02:00,
2013-01-29 11:22:00,65.0,63.0,-100.00,SSE,156,8.0,16.0,94,0.01,,,0.07,1.000000,,2013-01-29 17:22:00,
2013-01-29 11:33:00,65.0,63.0,-100.00,SSE,156,8.0,16.0,94,0.01,,,0.07,1.000000,,2013-01-29 17:33:00,
2013-01-29 11:42:00,65.0,63.0,-100.00,SSE,156,8.0,16.0,94,0.01,,,0.07,1.000000,,2013-01-29 17:42:00,
2013-01-29 11:52:00,65.0,63.0,-100.00,SSE,156,8.0,16.0,94,0.01,,,0.07,1.000000,,2013-01-29 17:52:00,
2013-01-29 12:02:00,65.0,63.0,-100.00,SSE,160,10.0,19.0,93,0.01,,,0.08,21.000000,,2013-01-29 18:02:00,
2013-01-29 12:22:00,65.0,63.0,-100.00,SSE,160,10.0,19.0,93,0.01,,,0.08,21.000000,,2013-01-29 18:22:00,
2013-01-29 12:33:00,65.0,63.0,-100.00,SSE,160,10.0,19.0,93,0.01,,,0.08,21.000000,,2013-01-29 18:33:00,
2013-01-29 12:42:00,65.0,63.0,-100.00,SSE,160,10.0,19.0,93,0.01,,,0.08,21.000000,,2013-01-29 18:42:00,
2013-01-29 12:52:00,65.0,63.0,-100.00,SSE,160,10.0,19.0,93,0.01,,,0.08,21.000000,,2013-01-29 18:52:00,
2013-01-29 13:02:00,65.0,64.0,-100.00,SSE,159,8.0,18.0,95,0.00,,,0.08,15.000000,,2013-01-29 19:02:00,
2013-01-29 13:33:00,65.0,64.0,-100.00,SSE,159,8.0,18.0,95,0.00,,,0.08,15.000000,,2013-01-29 19:33:00,
2013-01-29 13:42:00,65.0,64.0,-100.00,SSE,159,8.0,18.0,95,0.00,,,0.08,15.000000,,2013-01-29 19:42:00,
2013-01-29 13:52:00,65.0,64.0,-100.00,SSE,159,8.0,18.0,95,0.00,,,0.08,15.000000,,2013-01-29 19:52:00,
2013-01-29 14:02:00,65.0,64.0,-100.00,SSE,165,10.0,19.0,95,0.02,,,0.10,8.000000,,2013-01-29 20:02:00,
2013-01-29 14:33:00,65.0,64.0,-100.00,SSE,165,10.0,19.0,95,0.02,,,0.10,8.000000,,2013-01-29 20:33:00,
2013-01-29 14:42:00,65.0,64.0,-100.00,SSE,165,10.0,19.0,95,0.02,,,0.10,8.000000,,2013-01-29 20:42:00,
2013-01-29 14:53:00,65.0,64.0,-100.00,SSE,165,10.0,19.0,95,0.02,,,0.10,8.000000,,2013-01-29 20:53:00,
2013-01-29 15:02:00,65.0,64.0,-100.00,South,172,10.0,17.0,96,0.11,,,0.21,39.000000,,2013-01-29 21:02:00,
2013-01-29 15:34:00,65.0,64.0,-100.00,South,172,10.0,17.0,96,0.11,,,0.21,39.000000,,2013-01-29 21:34:00,
2013-01-29 15:42:00,65.0,64.0,-100.00,South,172,10.0,17.0,96,0.11,,,0.21,39.000000,,2013-01-29 21:42:00,
2013-01-29 15:53:00,65.0,64.0,-100.00,South,172,10.0,17.0,96,0.11,,,0.21,39.000000,,2013-01-29 21:53:00,
2013-01-29 16:02:00,67.0,65.0,-100.00,SSE,163,10.0,20.0,93,0.01,,,0.22,5.000000,,2013-01-29 22:02:00,
2013-01-29 16:33:00,67.0,65.0,-100.00,SSE,163,10.0,20.0,93,0.01,,,0.22,5.000000,,2013-01-29 22:33:00,
2013-01-29 16:42:00,67.0,65.0,-100.00,SSE,163,10.0,20.0,93,0.01,,,0.22,5.000000,,2013-01-29 22:42:00,
2013-01-29 16:53:00,67.0,65.0,-100.00,SSE,163,10.0,20.0,93,0.01,,,0.22,5.000000,,2013-01-29 22:53:00,
2013-01-29 17:02:00,67.0,64.0,-100.00,SSE,164,9.0,22.0,91,0.00,,,0.22,0.000000,,2013-01-29 23:02:00,
2013-01-29 17:33:00,67.0,64.0,-100.00,SSE,164,9.0,22.0,91,0.00,,,0.22,0.000000,,2013-01-29 23:33:00,
2013-01-29 17:42:00,67.0,64.0,-100.00,SSE,164,9.0,22.0,91,0.00,,,0.22,0.000000,,2013-01-29 23:42:00,
2013-01-29 17:53:00,67.0,64.0,-100.00,SSE,164,9.0,22.0,91,0.00,,,0.22,0.000000,,2013-01-29 23:53:00,
2013-01-29 18:02:00,68.0,65.0,-100.00,South,170,9.0,21.0,91,0.05,,,0.27,0.000000,,2013-01-30 00:02:00,
2013-01-29 18:33:00,68.0,65.0,-100.00,South,170,9.0,21.0,91,0.05,,,0.27,0.000000,,2013-01-30 00:33:00,
2013-01-29 18:43:00,68.0,65.0,-100.00,South,170,9.0,21.0,91,0.05,,,0.27,0.000000,,2013-01-30 00:43:00,
2013-01-29 18:53:00,68.0,65.0,-100.00,South,170,9.0,21.0,91,0.05,,,0.27,0.000000,,2013-01-30 00:53:00,
2013-01-29 19:02:00,67.0,64.0,-100.00,SSW,203,6.0,19.0,91,0.02,,,0.29,0.000000,,2013-01-30 01:02:00,
2013-01-29 19:23:00,67.0,64.0,-100.00,SSW,203,6.0,19.0,91,0.02,,,0.29,0.000000,,2013-01-30 01:23:00,
2013-01-29 19:32:00,67.0,64.0,-100.00,SSW,203,6.0,19.0,91,0.02,,,0.29,0.000000,,2013-01-30 01:32:00,
2013-01-29 19:43:00,67.0,64.0,-100.00,SSW,203,6.0,19.0,91,0.02,,,0.29,0.000000,,2013-01-30 01:43:00,
2013-01-29 19:52:00,67.0,64.0,-100.00,SSW,203,6.0,19.0,91,0.02,,,0.29,0.000000,,2013-01-30 01:52:00,
2013-01-29 20:02:00,61.0,55.0,-100.00,NW,317,10.0,25.0,81,0.01,,,0.30,0.000000,,2013-01-30 02:02:00,
2013-01-29 20:22:00,61.0,55.0,-100.00,NW,317,10.0,25.0,81,0.01,,,0.30,0.000000,,2013-01-30 02:22:00,
2013-01-29 20:33:00,61.0,55.0,-100.00,NW,317,10.0,25.0,81,0.01,,,0.30,0.000000,,2013-01-30 02:33:00,
2013-01-29 20:42:00,61.0,55.0,-100.00,NW,317,10.0,25.0,81,0.01,,,0.30,0.000000,,2013-01-30 02:42:00,
2013-01-29 20:53:00,61.0,55.0,-100.00,NW,317,10.0,25.0,81,0.01,,,0.30,0.000000,,2013-01-30 02:53:00,
2013-01-29 21:02:00,54.0,53.0,-100.00,SW,217,2.0,13.0,97,0.42,,,0.72,0.000000,,2013-01-30 03:02:00,
2013-01-29 21:22:00,54.0,53.0,-100.00,SW,217,2.0,13.0,97,0.42,,,0.72,0.000000,,2013-01-30 03:22:00,
2013-01-29 21:32:00,54.0,53.0,-100.00,SW,217,2.0,13.0,97,0.42,,,0.72,0.000000,,2013-01-30 03:32:00,
2013-01-29 21:42:00,54.0,53.0,-100.00,SW,217,2.0,13.0,97,0.42,,,0.72,0.000000,,2013-01-30 03:42:00,
2013-01-29 21:52:00,54.0,53.0,-100.00,SW,217,2.0,13.0,97,0.42,,,0.72,0.000000,,2013-01-30 03:52:00,
2013-01-29 22:02:00,54.0,54.0,-100.00,SSW,196,2.0,5.0,100,0.17,,,0.89,0.000000,,2013-01-30 04:02:00,
2013-01-29 22:32:00,54.0,54.0,-100.00,SSW,196,2.0,5.0,100,0.17,,,0.89,0.000000,,2013-01-30 04:32:00,
2013-01-29 22:42:00,54.0,54.0,-100.00,SSW,196,2.0,5.0,100,0.17,,,0.89,0.000000,,2013-01-30 04:42:00,
2013-01-29 22:52:00,54.0,54.0,-100.00,SSW,196,2.0,5.0,100,0.17,,,0.89,0.000000,,2013-01-30 04:52:00,
2013-01-29 23:02:00,54.0,53.0,-100.00,SW,231,5.0,11.0,95,0.12,,,1.01,0.000000,,2013-01-30 05:02:00,
2013-01-29 23:22:00,54.0,53.0,-100.00,SW,231,5.0,11.0,95,0.12,,,1.01,0.000000,,2013-01-30 05:22:00,
2013-01-29 23:32:00,54.0,53.0,-100.00,SW,231,5.0,11.0,95,0.12,,,1.01,0.000000,,2013-01-30 05:32:00,
2013-01-29 23:43:00,54.0,53.0,-100.00,SW,231,5.0,11.0,95,0.12,,,1.01,0.000000,,2013-01-30 05:43:00,
2013-01-29 23:52:00,54.0,53.0,-100.00,SW,231,5.0,11.0,95,0.12,,,1.01,0.000000,,2013-01-30 05:52:00,